Time;durP1;ratioP1;P1;durP2;ratioP2;P2;SDS_P1;SDS_P2;PMS_P1;PMS_P2;Temp;Humidity;BMP_temperature;BMP_pressure;BME280_temperature;BME280_humidity;BME280_pressure;Samples;Min_cycle;Max_cycle;Signal;HPM_P1;HPM_P2
2021/01/11 00:00:29;;;;;;;62.95;30.00;;;;;;;-1.76;79.79;100121.77;1527272;94;22132;-76
2021/01/11 00:02:56;;;;;;;76.50;31.57;;;;;;;-1.75;79.66;100125.28;1515499;94;21323;-76
2021/01/11 00:05:25;;;;;;;64.27;30.00;;;;;;;-1.75;79.57;100118.53;1533749;93;21293;-76
2021/01/11 00:07:52;;;;;;;58.08;28.87;;;;;;;-1.73;79.51;100110.52;1530397;93;21221;-76
2021/01/11 00:10:22;;;;;;;63.13;26.52;;;;;;;-1.73;79.41;100105.11;1530103;93;21261;-76
2021/01/11 00:12:49;;;;;;;61.60;27.50;;;;;;;-1.77;79.45;100099.00;1530480;93;21670;-76
2021/01/11 00:15:17;;;;;;;62.50;24.82;;;;;;;-1.81;79.45;100096.45;1529757;93;21452;-76
2021/01/11 00:17:44;;;;;;;51.42;23.62;;;;;;;-1.86;79.57;100095.78;1529829;93;21269;-76
2021/01/11 00:20:12;;;;;;;48.52;23.00;;;;;;;-1.88;79.68;100097.87;1571877;90;21159;-76
2021/01/11 00:22:43;;;;;;;58.17;26.80;;;;;;;-1.90;79.72;100105.37;1606359;86;21259;-76
2021/01/11 00:25:12;;;;;;;52.85;24.90;;;;;;;-1.89;79.48;100107.02;1697838;83;21378;-76
2021/01/11 00:27:41;;;;;;;56.73;26.52;;;;;;;-1.90;79.21;100113.48;1701671;84;21126;-76
2021/01/11 00:30:10;;;;;;;50.35;25.17;;;;;;;-1.94;79.02;100112.28;1698461;84;21159;-76
2021/01/11 00:32:39;;;;;;;52.45;23.92;;;;;;;-1.98;78.95;100124.86;1698488;84;21271;-76
2021/01/11 00:35:08;;;;;;;51.05;22.75;;;;;;;-2.03;78.97;100125.23;1727192;82;21107;-76
2021/01/11 00:37:36;;;;;;;46.45;22.90;;;;;;;-2.09;79.06;100129.64;1733650;82;21420;-76
2021/01/11 00:40:06;;;;;;;49.27;22.35;;;;;;;-2.11;79.02;100130.38;1713924;82;21547;-76
2021/01/11 00:42:35;;;;;;;49.98;23.20;;;;;;;-2.13;79.07;100128.45;1733526;82;21078;-76
2021/01/11 00:45:06;;;;;;;55.10;22.98;;;;;;;-2.23;79.26;100115.41;1724477;82;21126;-76
2021/01/11 00:47:41;;;;;;;48.28;22.95;;;;;;;-2.24;79.38;100120.52;1733278;82;21189;-76
2021/01/11 00:50:11;;;;;;;44.40;21.70;;;;;;;-2.25;79.39;100126.98;1722175;82;21404;-76
2021/01/11 00:52:41;;;;;;;46.92;21.55;;;;;;;-2.26;79.33;100124.80;1712658;82;21177;-76
2021/01/11 00:55:12;;;;;;;47.27;21.57;;;;;;;-2.26;79.30;100132.06;1724249;82;21151;-76
2021/01/11 00:57:42;;;;;;;50.83;23.25;;;;;;;-2.30;79.26;100124.11;1726909;82;21197;-76
2021/01/11 01:00:14;;;;;;;47.50;22.07;;;;;;;-2.35;79.43;100129.63;1734635;82;21142;-76
2021/01/11 01:02:49;;;;;;;48.80;22.22;;;;;;;-2.35;79.53;100135.55;1723591;82;21377;-75
2021/01/11 01:05:18;;;;;;;46.42;20.57;;;;;;;-2.36;79.52;100131.20;1739375;82;21121;-75
2021/01/11 01:07:46;;;;;;;45.95;22.02;;;;;;;-2.38;79.60;100131.94;1724174;82;21584;-75
2021/01/11 01:10:14;;;;;;;46.08;23.40;;;;;;;-2.42;79.83;100134.78;1742783;82;21548;-75
2021/01/11 01:12:41;;;;;;;44.95;21.73;;;;;;;-2.41;79.78;100132.37;1722768;82;21154;-75
2021/01/11 01:15:09;;;;;;;50.17;23.38;;;;;;;-2.43;79.58;100136.65;1732719;82;21378;-75
2021/01/11 01:17:38;;;;;;;44.95;21.68;;;;;;;-2.43;79.41;100134.47;1732541;82;21178;-76
2021/01/11 01:20:15;;;;;;;48.38;23.80;;;;;;;-2.48;79.61;100134.61;1726274;82;21122;-76
2021/01/11 01:22:38;;;;;;;48.42;22.40;;;;;;;-2.51;79.76;100127.47;1730502;82;21150;-75
2021/01/11 01:25:08;;;;;;;40.98;20.62;;;;;;;-2.51;79.70;100128.31;1725110;82;21586;-76
2021/01/11 01:27:35;;;;;;;45.08;21.70;;;;;;;-2.51;79.68;100127.47;1704181;84;22283;-75
2021/01/11 01:30:04;;;;;;;39.30;21.62;;;;;;;-2.53;79.72;100132.25;1718383;81;21129;-76
2021/01/11 01:32:33;;;;;;;46.73;21.30;;;;;;;-2.54;79.61;100129.26;1720878;82;21137;-75
2021/01/11 01:35:01;;;;;;;43.38;20.62;;;;;;;-2.54;79.45;100126.56;1701869;83;21475;-75
2021/01/11 01:37:28;;;;;;;46.08;20.65;;;;;;;-2.59;79.47;100126.68;1721117;82;21151;-75
2021/01/11 01:39:56;;;;;;;48.00;21.80;;;;;;;-2.59;79.42;100130.73;1735418;82;21673;-76
2021/01/11 01:42:23;;;;;;;41.48;19.12;;;;;;;-2.59;79.38;100134.77;1716230;82;21146;-76
2021/01/11 01:44:50;;;;;;;44.23;20.97;;;;;;;-2.62;79.30;100133.03;1719407;82;21117;-75
2021/01/11 01:47:18;;;;;;;44.23;19.50;;;;;;;-2.66;79.31;100139.38;1701393;84;21121;-75
2021/01/11 01:49:45;;;;;;;41.65;20.68;;;;;;;-2.71;79.07;100144.08;1705419;84;21596;-76
2021/01/11 01:52:13;;;;;;;45.70;24.00;;;;;;;-2.74;78.75;100146.38;1702454;84;21164;-76
2021/01/11 01:54:41;;;;;;;51.98;23.47;;;;;;;-2.81;78.63;100144.55;1722662;82;21110;-75
2021/01/11 01:57:09;;;;;;;44.42;23.38;;;;;;;-2.87;78.71;100150.83;1733356;82;21672;-75
2021/01/11 01:59:36;;;;;;;53.38;24.27;;;;;;;-2.90;78.72;100157.16;1720461;82;21170;-75
2021/01/11 02:02:04;;;;;;;51.63;25.62;;;;;;;-2.92;78.86;100159.24;1701262;83;21148;-76
2021/01/11 02:04:32;;;;;;;62.73;28.75;;;;;;;-2.92;78.82;100160.08;1731097;81;21223;-76
2021/01/11 02:07:26;;;;;;;86.80;35.28;;;;;;;-2.92;78.84;100164.64;1730956;82;21142;-76
2021/01/11 02:10:22;;;;;;;85.80;35.75;;;;;;;-2.92;79.00;100161.94;1718504;82;21101;-76
2021/01/11 02:13:27;;;;;;;101.00;37.63;;;;;;;-2.89;79.16;100157.46;1735188;82;21173;-76
2021/01/11 02:16:21;;;;;;;112.83;43.40;;;;;;;-2.83;79.47;100158.77;1704256;84;21559;-76
2021/01/11 02:19:15;;;;;;;101.65;40.03;;;;;;;-2.77;79.50;100158.45;1725316;82;21411;-75
2021/01/11 02:22:09;;;;;;;102.38;43.95;;;;;;;-2.74;79.54;100162.57;1729944;82;27907;-76
2021/01/11 02:25:16;;;;;;;100.27;41.68;;;;;;;-2.72;79.60;100157.28;1730819;82;21113;-75
2021/01/11 02:27:54;;;;;;;96.90;39.18;;;;;;;-2.67;79.68;100151.23;1705217;84;21860;-75
2021/01/11 02:30:36;;;;;;;103.12;40.83;;;;;;;-2.62;79.76;100136.56;1731074;81;21114;-75
2021/01/11 02:33:08;;;;;;;102.27;40.12;;;;;;;-2.61;79.83;100132.80;1730013;82;21376;-76
2021/01/11 02:35:49;;;;;;;95.90;42.08;;;;;;;-2.59;79.92;100135.28;1733876;81;21180;-76
2021/01/11 02:38:26;;;;;;;87.47;41.23;;;;;;;-2.50;80.23;100138.05;1856052;76;23456;-75
2021/01/11 02:40:54;;;;;;;84.07;38.55;;;;;;;-2.52;80.34;100134.73;1767430;77;21143;-77
2021/01/11 02:43:21;;;;;;;82.65;39.20;;;;;;;-2.49;80.42;100122.69;1760678;80;21200;-77
2021/01/11 02:45:49;;;;;;;94.17;40.90;;;;;;;-2.45;80.51;100121.19;1763337;80;21027;-76
2021/01/11 02:48:24;;;;;;;80.17;39.58;;;;;;;-2.42;80.48;100120.74;1768173;79;21181;-78
2021/01/11 02:51:26;;;;;;;89.65;39.38;;;;;;;-2.37;80.59;100116.06;1756390;80;21146;-77
2021/01/11 02:54:16;;;;;;;102.75;39.38;;;;;;;-2.35;80.54;100105.84;1776493;79;21695;-77
2021/01/11 02:57:04;;;;;;;91.28;39.23;;;;;;;-2.36;80.75;100097.45;1771499;79;21264;-77
2021/01/11 03:00:05;;;;;;;90.95;37.67;;;;;;;-2.35;80.97;100098.58;1758555;81;21132;-76
2021/01/11 03:02:36;;;;;;;72.80;32.33;;;;;;;-2.28;81.24;100095.83;1740640;81;21156;-76
2021/01/11 03:05:04;;;;;;;71.92;29.10;;;;;;;-2.21;81.26;100091.20;1783489;79;21093;-76
2021/01/11 03:07:32;;;;;;;62.35;25.85;;;;;;;-2.16;81.18;100093.23;1758706;80;21169;-77
2021/01/11 03:10:00;;;;;;;58.25;27.35;;;;;;;-2.13;81.19;100098.73;1768806;79;21162;-77
2021/01/11 03:12:28;;;;;;;54.48;26.70;;;;;;;-2.13;81.29;100098.19;1777530;79;21109;-77
2021/01/11 03:14:55;;;;;;;58.13;26.27;;;;;;;-2.07;81.34;100108.64;1741831;80;21131;-76
2021/01/11 03:17:22;;;;;;;48.70;23.87;;;;;;;-2.02;81.34;100110.16;1764470;80;21124;-76
2021/01/11 03:19:50;;;;;;;53.50;24.60;;;;;;;-1.95;81.30;100116.86;1782436;79;21090;-77
2021/01/11 03:22:18;;;;;;;45.73;23.62;;;;;;;-1.88;81.23;100124.90;1785405;79;21150;-77
2021/01/11 03:24:46;;;;;;;53.38;25.48;;;;;;;-1.84;81.24;100123.38;1763161;80;21527;-76
2021/01/11 03:27:13;;;;;;;55.83;25.45;;;;;;;-1.85;81.34;100127.98;1774176;79;21165;-76
2021/01/11 03:29:40;;;;;;;58.73;27.98;;;;;;;-1.84;81.34;100126.09;1776155;79;21169;-76
2021/01/11 03:32:07;;;;;;;53.23;25.20;;;;;;;-1.81;81.40;100132.42;1768389;79;21066;-76
2021/01/11 03:34:35;;;;;;;58.00;27.37;;;;;;;-1.77;81.48;100130.91;1763597;80;22191;-77
2021/01/11 03:37:02;;;;;;;56.98;26.62;;;;;;;-1.75;81.39;100118.02;1770939;79;21127;-77
2021/01/11 03:39:30;;;;;;;61.30;27.13;;;;;;;-1.77;81.40;100120.10;1764175;79;21151;-77
2021/01/11 03:41:59;;;;;;;55.40;25.90;;;;;;;-1.76;81.46;100123.13;1783311;79;21134;-77
2021/01/11 03:44:26;;;;;;;55.73;27.05;;;;;;;-1.71;81.56;100131.36;1784131;79;21830;-77
2021/01/11 03:46:54;;;;;;;49.40;22.93;;;;;;;-1.66;81.58;100129.36;1786270;79;21381;-76
2021/01/11 03:49:22;;;;;;;50.20;23.55;;;;;;;-1.61;81.61;100134.09;1783894;79;21099;-76
2021/01/11 03:51:49;;;;;;;46.95;23.70;;;;;;;-1.58;81.41;100136.34;1782857;79;21116;-77
2021/01/11 03:54:17;;;;;;;51.73;24.40;;;;;;;-1.57;81.33;100135.83;1782032;79;21147;-77
2021/01/11 03:56:44;;;;;;;49.67;25.08;;;;;;;-1.55;81.23;100145.34;1783802;79;21108;-77
2021/01/11 03:59:11;;;;;;;57.73;28.17;;;;;;;-1.51;81.47;100142.52;1785565;79;21700;-77
2021/01/11 04:01:39;;;;;;;62.93;31.10;;;;;;;-1.44;81.77;100145.14;1785404;79;21226;-76
2021/01/11 04:04:06;;;;;;;62.75;29.42;;;;;;;-1.40;81.57;100144.17;1784562;79;21064;-77
2021/01/11 04:06:33;;;;;;;67.53;30.90;;;;;;;-1.37;81.33;100139.66;1782242;79;21632;-77
2021/01/11 04:09:01;;;;;;;72.08;32.17;;;;;;;-1.38;81.18;100142.88;1782157;78;21138;-77
2021/01/11 04:11:28;;;;;;;77.67;33.88;;;;;;;-1.39;81.11;100150.70;1783356;79;21573;-77
2021/01/11 04:13:56;;;;;;;78.83;34.73;;;;;;;-1.37;81.15;100153.19;1785478;78;21123;-77
2021/01/11 04:16:23;;;;;;;76.00;33.55;;;;;;;-1.35;81.38;100150.55;1782115;79;21601;-76
2021/01/11 04:18:51;;;;;;;76.70;32.65;;;;;;;-1.31;81.37;100152.27;1784153;79;21131;-77
2021/01/11 04:21:19;;;;;;;62.20;28.77;;;;;;;-1.23;81.52;100159.28;1782476;79;21123;-77
2021/01/11 04:23:46;;;;;;;57.43;27.05;;;;;;;-1.19;81.58;100163.69;1783817;79;21800;-77
2021/01/11 04:26:14;;;;;;;52.30;26.77;;;;;;;-1.19;81.16;100164.52;1785089;79;21241;-77
2021/01/11 04:28:43;;;;;;;50.45;25.25;;;;;;;-1.17;81.17;100168.34;1784930;79;21127;-77
2021/01/11 04:31:11;;;;;;;55.30;25.90;;;;;;;-1.13;81.22;100168.21;1784702;79;21159;-77
2021/01/11 04:33:38;;;;;;;53.45;24.82;;;;;;;-1.09;81.23;100157.22;1782416;79;21577;-77
2021/01/11 04:36:06;;;;;;;50.17;24.98;;;;;;;-1.12;80.96;100146.34;1786905;79;21388;-77
2021/01/11 04:38:34;;;;;;;53.25;24.85;;;;;;;-1.13;80.82;100154.69;1781995;79;21132;-77
2021/01/11 04:41:04;;;;;;;48.33;24.82;;;;;;;-1.11;81.06;100155.29;1786712;78;21548;-77
2021/01/11 04:43:41;;;;;;;48.63;24.98;;;;;;;-1.08;80.93;100154.00;1796091;78;21066;-77
2021/01/11 04:46:09;;;;;;;54.03;26.10;;;;;;;-1.07;80.77;100151.58;1792965;78;21556;-77
2021/01/11 04:48:37;;;;;;;53.30;26.37;;;;;;;-1.08;80.69;100150.77;1765504;78;21473;-76
2021/01/11 04:51:06;;;;;;;58.25;28.10;;;;;;;-1.06;81.04;100151.38;1756335;80;21166;-77
2021/01/11 04:53:34;;;;;;;62.33;28.77;;;;;;;-1.02;81.06;100150.38;1767160;78;21053;-77
2021/01/11 04:56:04;;;;;;;55.23;27.93;;;;;;;-1.02;80.59;100145.80;1751558;81;21061;-77
2021/01/11 04:58:37;;;;;;;54.85;29.48;;;;;;;-1.03;80.51;100148.22;1782213;79;21168;-77
2021/01/11 05:01:04;;;;;;;67.40;31.85;;;;;;;-0.99;80.79;100147.23;1787040;78;21415;-77
2021/01/11 05:03:32;;;;;;;69.67;33.45;;;;;;;-0.94;80.88;100149.25;1793441;78;21231;-77
2021/01/11 05:05:59;;;;;;;78.17;34.18;;;;;;;-0.93;80.57;100151.73;1781841;79;21125;-77
2021/01/11 05:08:27;;;;;;;69.77;33.02;;;;;;;-0.93;80.24;100147.67;1792819;78;21050;-77
2021/01/11 05:10:55;;;;;;;70.40;33.50;;;;;;;-0.95;79.95;100148.42;1789850;78;21034;-77
2021/01/11 05:13:22;;;;;;;69.53;33.33;;;;;;;-0.99;79.82;100150.75;1751747;81;22134;-77
2021/01/11 05:15:49;;;;;;;75.17;34.73;;;;;;;-1.03;79.78;100154.98;1783782;79;21545;-77
2021/01/11 05:18:19;;;;;;;75.85;33.02;;;;;;;-1.05;80.00;100157.08;1769478;80;21119;-77
2021/01/11 05:20:47;;;;;;;73.07;34.25;;;;;;;-1.04;80.16;100155.21;1788775;78;21098;-77
2021/01/11 05:23:16;;;;;;;78.20;34.78;;;;;;;-1.02;80.12;100158.49;1788816;78;21157;-77
2021/01/11 05:25:45;;;;;;;81.00;36.85;;;;;;;-1.01;80.09;100150.70;1786590;78;21443;-77
2021/01/11 05:28:17;;;;;;;74.80;36.98;;;;;;;-1.01;79.92;100155.55;1793574;78;21098;-77
2021/01/11 05:30:48;;;;;;;83.37;34.63;;;;;;;-1.03;79.75;100148.22;1769659;79;21602;-77
2021/01/11 05:33:20;;;;;;;73.67;34.03;;;;;;;-1.04;79.74;100152.50;1769090;79;21218;-77
2021/01/11 05:36:07;;;;;;;73.80;33.75;;;;;;;-1.06;79.79;100162.72;1781594;79;21152;-77
2021/01/11 05:38:38;;;;;;;67.20;32.30;;;;;;;-1.07;79.87;100163.75;1794749;78;21388;-77
2021/01/11 05:41:22;;;;;;;65.30;33.00;;;;;;;-1.07;79.78;100167.30;1752409;80;21631;-77
2021/01/11 05:44:14;;;;;;;70.92;34.15;;;;;;;-1.09;79.82;100169.39;1771710;79;21582;-77
2021/01/11 05:46:44;;;;;;;67.60;33.53;;;;;;;-1.13;79.84;100169.05;1757079;79;21148;-77
2021/01/11 05:49:13;;;;;;;74.90;35.73;;;;;;;-1.18;79.99;100166.70;1774039;79;21145;-77
2021/01/11 05:51:40;;;;;;;67.20;34.45;;;;;;;-1.19;80.12;100165.03;1766471;79;21377;-77
2021/01/11 05:54:26;;;;;;;72.20;34.45;;;;;;;-1.23;80.22;100165.49;1781501;79;21587;-77
2021/01/11 05:56:58;;;;;;;68.72;33.30;;;;;;;-1.20;80.34;100160.69;1764472;80;21108;-76
2021/01/11 05:59:25;;;;;;;68.25;33.98;;;;;;;-1.16;80.60;100166.77;1764767;80;21630;-76
2021/01/11 06:02:00;;;;;;;69.30;35.52;;;;;;;-1.13;80.44;100172.27;1764360;80;21100;-76
2021/01/11 06:04:28;;;;;;;73.12;35.92;;;;;;;-1.12;80.30;100171.20;1765096;80;21378;-77
2021/01/11 06:06:56;;;;;;;68.67;33.38;;;;;;;-1.13;80.20;100173.63;1784025;79;21200;-76
2021/01/11 06:09:24;;;;;;;66.02;31.10;;;;;;;-1.17;80.25;100178.66;1762494;80;21132;-76
2021/01/11 06:11:51;;;;;;;61.18;30.00;;;;;;;-1.19;80.31;100178.05;1763925;80;21116;-76
2021/01/11 06:14:19;;;;;;;52.88;28.52;;;;;;;-1.19;80.43;100178.05;1736415;80;21108;-76
2021/01/11 06:16:47;;;;;;;53.55;27.13;;;;;;;-1.18;80.43;100177.02;1763970;80;22322;-76
2021/01/11 06:19:14;;;;;;;53.83;28.77;;;;;;;-1.16;80.38;100180.84;1765497;79;21148;-76
2021/01/11 06:21:51;;;;;;;58.23;30.10;;;;;;;-1.09;80.36;100190.23;1762402;79;21145;-76
2021/01/11 06:24:19;;;;;;;61.90;29.92;;;;;;;-1.06;80.41;100192.48;1761881;80;21088;-76
2021/01/11 06:26:48;;;;;;;58.60;29.48;;;;;;;-1.04;80.49;100185.78;1763565;77;21144;-76
2021/01/11 06:29:32;;;;;;;61.88;28.17;;;;;;;-1.03;80.49;100179.33;1777387;79;22197;-76
2021/01/11 06:32:22;;;;;;;55.67;27.13;;;;;;;-1.03;80.38;100187.45;1774118;79;21790;-76
2021/01/11 06:34:50;;;;;;;54.95;27.65;;;;;;;-1.04;80.44;100196.59;1779045;79;21117;-76
2021/01/11 06:37:21;;;;;;;57.30;28.23;;;;;;;-1.07;80.28;100194.35;1761657;79;21125;-76
2021/01/11 06:39:48;;;;;;;57.08;26.73;;;;;;;-1.17;80.25;100190.83;1761408;80;21105;-76
2021/01/11 06:42:17;;;;;;;57.30;27.90;;;;;;;-1.26;80.31;100186.23;1763829;80;21172;-76
2021/01/11 06:44:49;;;;;;;54.40;26.55;;;;;;;-1.30;80.53;100184.20;1761544;80;21144;-76
2021/01/11 06:47:28;;;;;;;53.70;27.10;;;;;;;-1.30;80.73;100189.10;1755515;80;21153;-77
2021/01/11 06:50:07;;;;;;;55.70;28.27;;;;;;;-1.25;80.86;100181.14;1763314;80;21222;-77
2021/01/11 06:52:38;;;;;;;54.73;28.25;;;;;;;-1.17;80.90;100180.52;1760755;80;21104;-76
2021/01/11 06:55:15;;;;;;;55.20;26.52;;;;;;;-1.14;80.85;100174.66;1765164;80;21367;-76
2021/01/11 06:57:52;;;;;;;56.95;27.70;;;;;;;-1.11;80.85;100176.94;1743766;81;21144;-76
2021/01/11 07:00:20;;;;;;;59.88;28.20;;;;;;;-1.05;80.89;100181.43;1743150;80;21208;-76
2021/01/11 07:02:47;;;;;;;61.33;28.85;;;;;;;-1.02;80.86;100182.33;1729020;80;21141;-76
2021/01/11 07:05:38;;;;;;;55.85;27.15;;;;;;;-1.04;80.73;100182.27;1771022;79;21133;-76
2021/01/11 07:08:17;;;;;;;54.23;26.40;;;;;;;-1.05;80.73;100185.48;1759628;79;21392;-77
2021/01/11 07:10:45;;;;;;;49.15;25.85;;;;;;;-1.07;80.91;100182.17;1752015;79;21656;-76
2021/01/11 07:13:23;;;;;;;51.42;25.23;;;;;;;-1.04;80.97;100184.42;1775290;79;21257;-75
2021/01/11 07:15:59;;;;;;;51.20;25.65;;;;;;;-1.01;80.96;100173.14;1752785;81;21129;-76
2021/01/11 07:18:45;;;;;;;49.23;23.05;;;;;;;-1.00;80.92;100173.46;1768886;79;21181;-77
2021/01/11 07:21:16;;;;;;;41.35;21.45;;;;;;;-0.96;80.96;100168.95;1758145;80;21386;-76
2021/01/11 07:23:44;;;;;;;38.90;18.60;;;;;;;-0.90;80.94;100173.44;1747867;81;21094;-77
2021/01/11 07:26:17;;;;;;;36.63;19.75;;;;;;;-0.90;80.99;100157.20;1763154;80;21115;-77
2021/01/11 07:29:09;;;;;;;41.00;19.95;;;;;;;-0.88;80.93;100166.77;1728836;82;21096;-77
2021/01/11 07:31:41;;;;;;;41.80;18.48;;;;;;;-0.82;80.81;100176.37;1766794;79;21200;-76
2021/01/11 07:34:18;;;;;;;35.68;18.02;;;;;;;-0.83;80.76;100177.41;1763398;80;23100;-77
2021/01/11 07:36:52;;;;;;;36.45;17.87;;;;;;;-0.83;80.73;100180.95;1766607;80;21199;-77
2021/01/11 07:39:30;;;;;;;29.70;17.32;;;;;;;-0.79;80.71;100176.75;1766813;80;21120;-77
2021/01/11 07:42:05;;;;;;;32.63;16.42;;;;;;;-0.76;80.58;100176.29;1766536;80;21168;-78
2021/01/11 07:44:37;;;;;;;35.55;17.10;;;;;;;-0.74;80.42;100176.89;1758329;80;21034;-78
2021/01/11 07:47:14;;;;;;;32.63;17.65;;;;;;;-0.75;80.41;100178.48;1756445;81;21322;-75
2021/01/11 07:49:46;;;;;;;33.90;17.50;;;;;;;-0.73;80.37;100176.34;1769754;79;21161;-75
2021/01/11 07:52:19;;;;;;;33.38;17.48;;;;;;;-0.70;80.24;100184.00;1734638;80;21579;-76
2021/01/11 07:54:58;;;;;;;34.23;17.37;;;;;;;-0.66;80.31;100184.38;1752508;80;21105;-76
2021/01/11 07:57:29;;;;;;;35.35;17.92;;;;;;;-0.63;80.53;100186.63;1722380;80;21046;-76
2021/01/11 08:00:11;;;;;;;28.75;14.07;;;;;;;-0.56;80.63;100192.78;1762824;80;21219;-76
2021/01/11 08:02:46;;;;;;;37.00;17.60;;;;;;;-0.51;80.63;100192.92;1762494;80;21554;-76
2021/01/11 08:05:24;;;;;;;25.68;15.78;;;;;;;-0.48;80.41;100198.42;1763004;80;21618;-76
2021/01/11 08:08:04;;;;;;;30.05;15.10;;;;;;;-0.45;80.33;100203.37;1765531;80;21093;-76
2021/01/11 08:10:35;;;;;;;30.20;16.02;;;;;;;-0.38;80.13;100197.86;1756351;81;21116;-76
2021/01/11 08:13:08;;;;;;;29.00;15.75;;;;;;;-0.35;79.72;100205.52;1779004;79;22337;-76
2021/01/11 08:15:36;;;;;;;35.93;16.00;;;;;;;-0.35;79.20;100199.27;1780740;79;21126;-76
2021/01/11 08:18:04;;;;;;;37.53;19.07;;;;;;;-0.37;79.10;100199.50;1761696;80;21847;-76
2021/01/11 08:20:32;;;;;;;34.95;17.37;;;;;;;-0.39;78.77;100200.25;1763852;80;21112;-76
2021/01/11 08:23:09;;;;;;;40.25;16.97;;;;;;;-0.40;78.53;100206.74;1765272;80;21558;-76
2021/01/11 08:25:37;;;;;;;31.75;15.60;;;;;;;-0.39;78.41;100205.67;1765600;80;22097;-78
2021/01/11 08:28:13;;;;;;;33.75;16.30;;;;;;;-0.40;78.31;100209.45;1762462;79;21144;-79
2021/01/11 08:30:57;;;;;;;36.77;16.67;;;;;;;-0.38;78.51;100205.99;1776045;79;21181;-82
2021/01/11 08:33:31;;;;;;;41.90;18.87;;;;;;;-0.37;78.36;100211.17;1774622;79;21090;-78
2021/01/11 08:36:20;;;;;;;37.15;16.40;;;;;;;-0.37;78.16;100212.53;1762331;80;21117;-78
2021/01/11 08:39:10;;;;;;;28.95;14.50;;;;;;;-0.36;78.00;100218.78;1761771;80;21419;-77
2021/01/11 08:41:48;;;;;;;25.02;13.70;;;;;;;-0.32;78.02;100221.31;1763999;80;21187;-78
2021/01/11 08:44:29;;;;;;;31.82;13.20;;;;;;;-0.29;77.81;100220.05;1764634;80;21121;-77
2021/01/11 08:47:08;;;;;;;39.13;12.53;;;;;;;-0.28;77.33;100219.81;1764746;80;21143;-77
2021/01/11 08:50:01;;;;;;;38.65;14.23;;;;;;;-0.26;76.80;100218.22;1765092;80;21136;-77
2021/01/11 08:52:31;;;;;;;31.55;13.98;;;;;;;-0.25;76.74;100215.80;1764781;80;21184;-78
2021/01/11 08:55:11;;;;;;;34.13;16.37;;;;;;;-0.28;76.58;100212.20;1764429;81;21114;-78
2021/01/11 08:57:39;;;;;;;31.55;15.50;;;;;;;-0.27;76.42;100213.84;1767879;79;21136;-78
2021/01/11 09:00:11;;;;;;;31.93;14.98;;;;;;;-0.32;76.16;100221.31;1754791;81;21105;-77
2021/01/11 09:02:46;;;;;;;28.73;13.50;;;;;;;-0.32;76.36;100219.95;1763423;81;21618;-78
2021/01/11 09:05:18;;;;;;;34.95;13.58;;;;;;;-0.32;76.13;100209.13;1759399;81;21791;-77
2021/01/11 09:07:47;;;;;;;31.42;14.65;;;;;;;-0.37;76.09;100204.41;1739917;82;21166;-78
2021/01/11 09:10:32;;;;;;;25.70;12.05;;;;;;;-0.37;76.19;100207.11;1755659;80;21124;-77
2021/01/11 09:13:20;;;;;;;22.77;12.63;;;;;;;-0.34;76.24;100211.23;1767315;79;21149;-78
2021/01/11 09:15:48;;;;;;;28.20;13.38;;;;;;;-0.31;76.17;100206.73;1768528;79;21208;-78
2021/01/11 09:18:16;;;;;;;30.95;13.05;;;;;;;-0.28;76.07;100203.55;1766295;79;21316;-78
2021/01/11 09:20:45;;;;;;;36.13;14.65;;;;;;;-0.28;75.93;100200.02;1755411;80;21191;-78
2021/01/11 09:23:14;;;;;;;33.78;15.38;;;;;;;-0.27;75.95;100202.48;1755184;80;21164;-78
2021/01/11 09:25:41;;;;;;;38.15;16.02;;;;;;;-0.23;75.87;100202.86;1754977;80;21164;-78
2021/01/11 09:28:09;;;;;;;35.15;16.70;;;;;;;-0.21;75.77;100202.10;1770110;80;21666;-78
2021/01/11 09:30:36;;;;;;;31.17;15.65;;;;;;;-0.19;75.79;100201.87;1771132;80;21128;-78
2021/01/11 09:33:05;;;;;;;35.35;16.00;;;;;;;-0.19;75.75;100205.41;1770667;80;21176;-78
2021/01/11 09:35:35;;;;;;;47.03;18.82;;;;;;;-0.17;75.71;100203.82;1755127;80;21597;-78
2021/01/11 09:38:02;;;;;;;38.40;17.52;;;;;;;-0.16;75.55;100200.05;1766602;80;21104;-78
2021/01/11 09:40:29;;;;;;;39.10;18.00;;;;;;;-0.16;75.58;100195.46;1789181;79;21182;-78
2021/01/11 09:42:59;;;;;;;43.15;20.30;;;;;;;-0.15;75.25;100200.33;1788392;79;21272;-77
2021/01/11 09:45:27;;;;;;;40.60;17.95;;;;;;;-0.16;75.19;100195.98;1776698;79;21131;-77
2021/01/11 09:47:54;;;;;;;47.83;22.10;;;;;;;-0.18;75.25;100191.31;1776494;79;21119;-77
2021/01/11 09:50:21;;;;;;;53.83;23.77;;;;;;;-0.16;75.50;100187.85;1783649;78;21168;-78
2021/01/11 09:52:49;;;;;;;45.08;23.20;;;;;;;-0.13;75.66;100189.58;1795296;78;21099;-78
2021/01/11 09:55:16;;;;;;;44.65;22.35;;;;;;;-0.12;75.80;100187.70;1778946;79;22374;-79
2021/01/11 09:57:44;;;;;;;53.58;24.30;;;;;;;-0.11;75.59;100189.86;1790344;78;21222;-78
2021/01/11 10:00:14;;;;;;;50.05;24.00;;;;;;;-0.14;75.60;100185.19;1792045;78;21188;-77
2021/01/11 10:02:51;;;;;;;54.58;23.75;;;;;;;-0.16;75.23;100183.27;1801599;78;21154;-78
2021/01/11 10:05:20;;;;;;;60.40;26.73;;;;;;;-0.17;75.35;100184.31;1789623;78;21122;-78
2021/01/11 10:07:47;;;;;;;61.88;27.40;;;;;;;-0.17;75.40;100182.95;1764454;79;21777;-78
2021/01/11 10:10:16;;;;;;;57.35;28.92;;;;;;;-0.17;75.42;100182.95;1803251;78;21610;-78
2021/01/11 10:12:43;;;;;;;54.85;28.05;;;;;;;-0.18;75.34;100185.90;1785567;79;21092;-78
2021/01/11 10:15:12;;;;;;;64.82;31.15;;;;;;;-0.21;75.44;100172.30;1779334;79;21132;-78
2021/01/11 10:17:39;;;;;;;74.92;35.20;;;;;;;-0.18;75.61;100180.48;1789252;79;21068;-78
2021/01/11 10:20:09;;;;;;;59.77;29.57;;;;;;;-0.16;75.46;100175.14;1785424;79;21201;-76
2021/01/11 10:22:38;;;;;;;62.15;31.40;;;;;;;-0.19;75.38;100175.61;1793571;79;21153;-77
2021/01/11 10:25:07;;;;;;;66.15;32.17;;;;;;;-0.16;75.49;100172.95;1782861;78;21114;-77
2021/01/11 10:27:35;;;;;;;61.58;28.07;;;;;;;-0.16;75.70;100168.37;1786366;79;21331;-77
2021/01/11 10:30:04;;;;;;;63.40;30.48;;;;;;;-0.16;75.50;100164.83;1787515;79;21115;-77
2021/01/11 10:32:32;;;;;;;63.87;30.30;;;;;;;-0.18;75.56;100167.77;1787518;79;21402;-77
2021/01/11 10:34:59;;;;;;;59.25;28.27;;;;;;;-0.17;75.60;100165.89;1786666;79;21127;-77
2021/01/11 10:37:27;;;;;;;59.45;30.37;;;;;;;-0.15;75.67;100165.11;1794313;78;21110;-77
2021/01/11 10:39:55;;;;;;;65.57;29.80;;;;;;;-0.13;75.64;100158.94;1775104;79;21137;-77
2021/01/11 10:42:27;;;;;;;58.42;30.12;;;;;;;-0.09;75.61;100159.30;1746457;80;21619;-77
2021/01/11 10:44:55;;;;;;;58.20;29.10;;;;;;;-0.09;75.45;100157.94;1747487;80;22368;-77
2021/01/11 10:47:23;;;;;;;57.48;29.27;;;;;;;-0.12;75.30;100152.48;1774864;79;21112;-78
2021/01/11 10:49:52;;;;;;;61.10;28.27;;;;;;;-0.13;75.26;100154.88;1761440;79;21112;-78
2021/01/11 10:52:19;;;;;;;61.05;29.55;;;;;;;-0.16;75.41;100152.63;1777910;79;21144;-78
2021/01/11 10:54:48;;;;;;;57.08;28.70;;;;;;;-0.16;75.54;100148.05;1749533;80;21175;-77
2021/01/11 10:57:16;;;;;;;65.35;28.35;;;;;;;-0.11;75.65;100150.57;1761210;80;21634;-77
2021/01/11 10:59:43;;;;;;;60.48;29.10;;;;;;;-0.10;75.66;100148.98;1763277;80;21575;-78
2021/01/11 11:02:11;;;;;;;64.67;29.50;;;;;;;-0.06;75.57;100156.12;1766181;80;21145;-81
2021/01/11 11:04:41;;;;;;;61.00;27.37;;;;;;;-0.05;75.52;100153.17;1761932;80;21152;-80
2021/01/11 11:07:08;;;;;;;61.68;28.20;;;;;;;-0.04;75.42;100150.77;1762361;80;21129;-78
2021/01/11 11:09:36;;;;;;;75.45;31.65;;;;;;;-0.01;75.44;100153.53;1769655;80;21373;-77
2021/01/11 11:12:04;;;;;;;62.13;30.20;;;;;;;-0.01;75.41;100152.18;1753119;80;21148;-77
2021/01/11 11:14:32;;;;;;;56.10;29.30;;;;;;;-0.02;75.30;100149.98;1768018;79;21118;-76
2021/01/11 11:17:01;;;;;;;56.73;26.87;;;;;;;-0.05;75.25;100146.95;1737142;80;21695;-79
2021/01/11 11:19:28;;;;;;;64.20;29.37;;;;;;;-0.09;75.25;100138.98;1751210;79;21185;-76
2021/01/11 11:21:56;;;;;;;61.50;29.63;;;;;;;-0.11;75.22;100139.21;1775926;79;21790;-77
2021/01/11 11:46:44;;;;;;;58.45;29.50;;;;;;;0.07;75.21;100146.96;1839360;76;23505;-77
2021/01/11 11:49:11;;;;;;;47.85;26.62;;;;;;;-0.01;75.10;100144.89;1779873;80;21095;-81
2021/01/11 11:51:44;;;;;;;50.70;26.68;;;;;;;-0.04;75.10;100142.65;1790455;78;21618;-78